Time;durP1;ratioP1;P1;durP2;ratioP2;P2;SDS_P1;SDS_P2;PMS_P1;PMS_P2;Temp;Humidity;BMP_temperature;BMP_pressure;BME280_temperature;BME280_humidity;BME280_pressure;Samples;Min_cycle;Max_cycle;Signal;HPM_P1;HPM_P2
2021/11/29 00:00:19;;;;;;;22.73;12.65;;;1.60;99.90;;;;;;5053644;28;20065;-69
2021/11/29 00:02:48;;;;;;;23.73;14.25;;;1.60;99.90;;;;;;4986760;28;20022;-69
2021/11/29 00:05:19;;;;;;;25.00;13.88;;;1.60;99.90;;;;;;5075981;28;20030;-69
2021/11/29 00:07:45;;;;;;;23.10;13.32;;;1.60;99.90;;;;;;4991710;28;20474;-69
2021/11/29 00:10:10;;;;;;;23.55;14.02;;;1.60;99.90;;;;;;4986655;28;20057;-69
2021/11/29 00:12:37;;;;;;;22.05;13.80;;;1.50;99.90;;;;;;4987254;28;20034;-69
2021/11/29 00:15:05;;;;;;;20.90;13.50;;;1.60;99.90;;;;;;4987055;28;20026;-72
2021/11/29 00:17:31;;;;;;;23.83;13.48;;;1.60;99.90;;;;;;4985269;28;20390;-69
2021/11/29 00:19:56;;;;;;;24.58;13.43;;;1.60;99.90;;;;;;4986798;28;20030;-68
2021/11/29 00:22:22;;;;;;;22.13;13.18;;;1.60;99.90;;;;;;5003254;28;20367;-69
2021/11/29 00:24:47;;;;;;;22.50;12.88;;;1.60;99.90;;;;;;4977359;28;20097;-68
2021/11/29 00:27:13;;;;;;;25.20;14.10;;;1.60;99.90;;;;;;4974043;28;20665;-70
2021/11/29 00:29:39;;;;;;;25.77;13.85;;;1.60;99.90;;;;;;4987110;28;20031;-69
2021/11/29 00:32:05;;;;;;;23.80;13.32;;;1.60;99.90;;;;;;4986120;28;20038;-68
2021/11/29 00:34:30;;;;;;;24.35;14.30;;;1.60;99.90;;;;;;5067574;28;20169;-68
2021/11/29 00:36:56;;;;;;;28.40;14.30;;;1.60;99.90;;;;;;5054344;28;20080;-70
2021/11/29 00:39:22;;;;;;;23.40;13.40;;;1.70;99.90;;;;;;4999005;28;20026;-69
2021/11/29 00:41:47;;;;;;;27.13;14.15;;;1.60;99.90;;;;;;4987969;28;20030;-69
2021/11/29 00:44:13;;;;;;;25.17;14.05;;;1.60;99.90;;;;;;4988647;28;20033;-69
2021/11/29 00:46:39;;;;;;;24.88;13.85;;;1.60;99.90;;;;;;4995742;28;20024;-69
2021/11/29 00:49:04;;;;;;;23.98;12.48;;;1.60;99.90;;;;;;5052508;28;20034;-70
2021/11/29 00:51:30;;;;;;;27.60;13.57;;;1.70;99.90;;;;;;4986816;28;20038;-70
2021/11/29 00:53:56;;;;;;;25.80;13.23;;;1.70;99.90;;;;;;4986304;28;20061;-69
2021/11/29 00:56:22;;;;;;;27.60;14.13;;;1.70;99.90;;;;;;5054082;28;20082;-70
2021/11/29 00:58:48;;;;;;;27.33;14.02;;;1.70;99.90;;;;;;5051439;28;20026;-68
2021/11/29 01:01:15;;;;;;;27.05;14.50;;;1.70;99.90;;;;;;5047794;28;20033;-70
2021/11/29 01:03:40;;;;;;;25.00;14.25;;;1.70;99.90;;;;;;4989489;28;20034;-70
2021/11/29 01:06:07;;;;;;;24.88;13.27;;;1.70;99.90;;;;;;4983126;28;20516;-69
2021/11/29 01:08:33;;;;;;;28.10;14.43;;;1.70;99.90;;;;;;4983739;28;20117;-69
2021/11/29 01:11:00;;;;;;;22.50;12.55;;;1.80;99.90;;;;;;4989372;28;20106;-69
2021/11/29 01:13:25;;;;;;;29.35;13.15;;;1.70;99.90;;;;;;5000770;28;20490;-68
2021/11/29 01:15:51;;;;;;;20.75;12.10;;;1.80;99.90;;;;;;5024834;28;20053;-69
2021/11/29 01:18:17;;;;;;;21.75;12.40;;;1.80;99.90;;;;;;5055205;28;20109;-69
2021/11/29 01:20:43;;;;;;;26.95;12.40;;;1.80;99.90;;;;;;4989375;28;20026;-70
2021/11/29 01:23:11;;;;;;;20.95;11.63;;;1.80;99.90;;;;;;4989481;28;20030;-69
2021/11/29 01:25:37;;;;;;;22.02;11.70;;;1.80;99.90;;;;;;4989074;28;20389;-69
2021/11/29 01:28:03;;;;;;;18.08;11.27;;;1.80;99.90;;;;;;4988140;28;20022;-69
2021/11/29 01:30:29;;;;;;;21.08;12.07;;;1.80;99.90;;;;;;5056940;28;20062;-69
2021/11/29 01:32:55;;;;;;;18.77;11.38;;;1.80;99.90;;;;;;4988365;28;20115;-69
2021/11/29 01:35:21;;;;;;;23.63;12.27;;;1.80;99.90;;;;;;4990876;28;20026;-69
2021/11/29 01:37:46;;;;;;;19.60;11.32;;;1.80;99.90;;;;;;5055610;28;20042;-69
2021/11/29 01:40:13;;;;;;;20.00;11.05;;;1.80;99.90;;;;;;4988177;28;20076;-68
2021/11/29 01:42:53;;;;;;;19.65;12.02;;;1.70;99.90;;;;;;4991644;28;20034;-68
2021/11/29 01:45:19;;;;;;;21.92;12.38;;;1.70;99.90;;;;;;5037108;28;20030;-73
2021/11/29 01:47:45;;;;;;;22.27;11.20;;;1.70;99.90;;;;;;4998735;28;20117;-69
2021/11/29 01:50:10;;;;;;;20.17;11.68;;;1.60;99.90;;;;;;4988818;28;20022;-69
2021/11/29 01:52:36;;;;;;;20.35;12.30;;;1.60;99.90;;;;;;5059168;28;20039;-69
2021/11/29 01:55:01;;;;;;;22.33;11.63;;;1.60;99.90;;;;;;5029385;28;20030;-69
2021/11/29 01:57:27;;;;;;;21.80;12.60;;;1.60;99.90;;;;;;5055403;28;20029;-68
2021/11/29 01:59:53;;;;;;;21.35;12.13;;;1.60;99.90;;;;;;5055913;28;20389;-68
2021/11/29 02:02:19;;;;;;;20.48;12.15;;;1.60;99.90;;;;;;4984574;28;20114;-69
2021/11/29 02:04:46;;;;;;;20.75;12.07;;;1.60;99.90;;;;;;4986328;28;20026;-68
2021/11/29 02:07:11;;;;;;;20.48;11.02;;;1.60;99.90;;;;;;5055023;28;20564;-69
2021/11/29 02:09:37;;;;;;;22.75;12.15;;;1.60;99.90;;;;;;4987653;28;20038;-69
2021/11/29 02:12:03;;;;;;;21.45;11.25;;;1.60;99.90;;;;;;4987875;28;20501;-70
2021/11/29 02:14:29;;;;;;;21.70;12.25;;;1.70;99.90;;;;;;5029504;28;20038;-69
2021/11/29 02:16:54;;;;;;;22.33;12.15;;;1.70;99.90;;;;;;4987596;28;20101;-70
2021/11/29 02:19:21;;;;;;;19.40;11.60;;;1.70;99.90;;;;;;4987603;28;20025;-69
2021/11/29 02:21:46;;;;;;;21.73;11.93;;;1.70;99.90;;;;;;5055257;28;20034;-69
2021/11/29 02:24:12;;;;;;;22.30;12.98;;;1.70;99.90;;;;;;5021822;28;20102;-69
2021/11/29 02:26:38;;;;;;;22.02;12.95;;;1.70;99.90;;;;;;5048639;28;20027;-69
2021/11/29 02:29:09;;;;;;;20.85;12.18;;;1.70;99.90;;;;;;4994290;28;20037;-69
2021/11/29 02:31:43;;;;;;;22.60;13.27;;;1.70;99.90;;;;;;4988090;28;20036;-69
2021/11/29 02:34:18;;;;;;;24.02;13.02;;;1.70;99.90;;;;;;4991847;28;20053;-69
2021/11/29 02:36:45;;;;;;;19.40;12.13;;;1.70;99.90;;;;;;4988378;28;20030;-68
2021/11/29 02:39:13;;;;;;;21.45;13.50;;;1.70;99.90;;;;;;5054915;28;20029;-69
2021/11/29 02:41:39;;;;;;;24.15;13.80;;;1.80;99.90;;;;;;4987925;28;20044;-69
2021/11/29 02:44:05;;;;;;;23.13;13.48;;;1.80;99.90;;;;;;4990273;28;20036;-69
2021/11/29 02:46:31;;;;;;;26.45;14.95;;;1.80;99.90;;;;;;4986913;28;20180;-69
2021/11/29 02:48:57;;;;;;;20.17;12.73;;;1.80;99.90;;;;;;5053844;28;20073;-69
2021/11/29 02:51:26;;;;;;;23.63;13.57;;;1.80;99.90;;;;;;4987864;28;20037;-69
2021/11/29 02:53:59;;;;;;;24.30;14.02;;;1.80;99.90;;;;;;5068941;28;20019;-69
2021/11/29 02:56:25;;;;;;;24.77;14.25;;;1.80;99.90;;;;;;4987854;28;20030;-69
2021/11/29 02:58:51;;;;;;;26.65;13.93;;;1.70;99.90;;;;;;4989943;28;20018;-68
2021/11/29 03:01:16;;;;;;;24.60;14.68;;;1.80;99.90;;;;;;4984352;28;20046;-69
2021/11/29 03:03:47;;;;;;;24.73;13.30;;;1.70;99.90;;;;;;5053663;28;20470;-69
2021/11/29 03:06:13;;;;;;;23.00;13.82;;;1.70;99.90;;;;;;4988338;28;20046;-69
2021/11/29 03:08:40;;;;;;;25.98;14.00;;;1.80;99.90;;;;;;4986379;28;20068;-69
2021/11/29 03:11:06;;;;;;;23.00;13.82;;;1.80;99.90;;;;;;4988214;28;20113;-70
2021/11/29 03:13:32;;;;;;;23.98;14.38;;;1.80;99.90;;;;;;5014751;28;20401;-69
2021/11/29 03:15:57;;;;;;;22.25;13.50;;;1.70;99.90;;;;;;5013297;23;20797;-67
2021/11/29 03:18:31;;;;;;;22.73;13.95;;;1.70;99.90;;;;;;5002897;28;20036;-67
2021/11/29 03:20:57;;;;;;;24.02;13.75;;;1.70;99.90;;;;;;5088349;28;20030;-68
2021/11/29 03:23:22;;;;;;;24.20;14.45;;;1.70;99.90;;;;;;5007798;28;20471;-68
2021/11/29 03:25:48;;;;;;;27.40;14.55;;;1.70;99.90;;;;;;5013059;28;20489;-67
2021/11/29 03:28:14;;;;;;;22.38;13.27;;;1.70;99.90;;;;;;4988885;28;20037;-67
2021/11/29 03:30:40;;;;;;;24.55;14.45;;;1.70;99.90;;;;;;5012321;28;20462;-67
2021/11/29 03:33:05;;;;;;;21.98;13.55;;;1.70;99.90;;;;;;5019615;28;20036;-67
2021/11/29 03:35:31;;;;;;;21.90;13.68;;;1.70;99.90;;;;;;5008119;28;20033;-68
2021/11/29 03:37:57;;;;;;;21.80;13.27;;;1.60;99.90;;;;;;5014134;28;20017;-68
2021/11/29 03:40:22;;;;;;;21.58;13.18;;;1.70;99.90;;;;;;5010400;28;20087;-68
2021/11/29 03:42:48;;;;;;;22.23;13.68;;;1.60;99.90;;;;;;5011870;28;20034;-67
2021/11/29 03:45:14;;;;;;;21.48;13.05;;;1.70;99.90;;;;;;5005512;28;20034;-67
2021/11/29 03:47:41;;;;;;;21.30;13.00;;;1.60;99.90;;;;;;5008273;28;20060;-67
2021/11/29 03:50:07;;;;;;;21.47;13.97;;;1.70;99.90;;;;;;5013675;28;20029;-68
2021/11/29 03:52:33;;;;;;;24.17;13.82;;;1.60;99.90;;;;;;5018969;28;20091;-67
2021/11/29 03:54:58;;;;;;;26.10;14.50;;;1.70;99.90;;;;;;5011305;28;20026;-68
2021/11/29 03:57:24;;;;;;;25.02;14.98;;;1.70;99.90;;;;;;5016784;28;20018;-67
2021/11/29 03:59:50;;;;;;;26.70;15.18;;;1.70;99.90;;;;;;5005944;28;20118;-68
2021/11/29 04:02:15;;;;;;;24.48;14.90;;;1.70;99.90;;;;;;5007047;28;20034;-68
2021/11/29 04:04:41;;;;;;;25.60;14.75;;;1.70;99.90;;;;;;5007189;28;20034;-68
2021/11/29 04:07:07;;;;;;;23.88;14.25;;;1.70;99.90;;;;;;4997168;28;20494;-68
2021/11/29 04:09:32;;;;;;;25.00;14.27;;;1.70;99.90;;;;;;5006100;28;20038;-67
2021/11/29 04:11:58;;;;;;;24.05;14.57;;;1.70;99.90;;;;;;5006626;28;20034;-67
2021/11/29 04:14:23;;;;;;;21.70;13.60;;;1.70;99.90;;;;;;5004421;28;20048;-68
2021/11/29 04:16:49;;;;;;;23.30;13.60;;;1.70;99.90;;;;;;5005859;28;20109;-68
2021/11/29 04:19:15;;;;;;;24.25;14.45;;;1.70;99.90;;;;;;5004884;28;20034;-66
2021/11/29 04:21:41;;;;;;;24.55;13.70;;;1.70;99.90;;;;;;5005411;28;20030;-67
2021/11/29 04:24:07;;;;;;;23.88;15.25;;;1.70;99.90;;;;;;5005849;28;20022;-67
2021/11/29 04:26:33;;;;;;;26.40;14.98;;;1.70;99.90;;;;;;5007329;28;20389;-67
2021/11/29 04:29:05;;;;;;;26.02;15.95;;;1.70;99.90;;;;;;5005310;28;20345;-68
2021/11/29 04:31:31;;;;;;;27.10;15.38;;;1.70;99.90;;;;;;5011053;28;20039;-67
2021/11/29 04:33:56;;;;;;;27.95;15.13;;;1.80;99.90;;;;;;5016652;28;20034;-68
2021/11/29 04:36:22;;;;;;;26.45;15.48;;;1.80;99.90;;;;;;5014062;28;20090;-68
2021/11/29 04:38:48;;;;;;;29.27;15.68;;;1.80;99.90;;;;;;5005492;28;20022;-67
2021/11/29 04:41:13;;;;;;;29.92;16.00;;;1.70;99.90;;;;;;5079552;28;20048;-67
2021/11/29 04:43:39;;;;;;;28.40;15.85;;;1.80;99.90;;;;;;5011959;28;20033;-67
2021/11/29 04:46:04;;;;;;;27.30;16.55;;;1.70;99.90;;;;;;5010761;28;20413;-68
2021/11/29 04:48:30;;;;;;;30.05;16.70;;;1.80;99.90;;;;;;5009530;28;20490;-68
2021/11/29 04:50:56;;;;;;;27.13;16.27;;;1.80;99.90;;;;;;5010058;28;20057;-67
2021/11/29 04:53:21;;;;;;;29.05;16.67;;;1.70;99.90;;;;;;5012588;28;20024;-67
2021/11/29 04:55:47;;;;;;;28.73;16.27;;;1.70;99.90;;;;;;5010216;28;20041;-67
2021/11/29 04:58:13;;;;;;;30.83;17.60;;;1.80;99.90;;;;;;5009101;28;20522;-68
2021/11/29 05:00:38;;;;;;;29.95;17.40;;;1.80;99.90;;;;;;5015392;28;20041;-67
2021/11/29 05:03:04;;;;;;;29.83;16.75;;;1.80;99.90;;;;;;5023841;28;20030;-67
2021/11/29 05:05:29;;;;;;;27.10;16.42;;;1.80;99.90;;;;;;5079948;28;20393;-68
2021/11/29 05:07:55;;;;;;;30.67;17.10;;;1.80;99.90;;;;;;5009473;28;20729;-68
2021/11/29 05:10:21;;;;;;;28.35;17.23;;;1.80;99.90;;;;;;5011184;28;20159;-68
2021/11/29 05:12:46;;;;;;;31.08;16.92;;;1.80;99.90;;;;;;5009857;28;20026;-67
2021/11/29 05:15:12;;;;;;;34.75;18.90;;;1.70;99.90;;;;;;5015958;28;20497;-68
2021/11/29 05:17:38;;;;;;;32.42;17.88;;;1.70;99.90;;;;;;5008870;28;20042;-67
2021/11/29 05:20:04;;;;;;;30.63;17.55;;;1.70;99.90;;;;;;5022696;28;20044;-68
2021/11/29 05:22:30;;;;;;;35.97;17.95;;;1.70;99.90;;;;;;5010194;28;20045;-67
2021/11/29 05:24:56;;;;;;;36.97;18.63;;;1.70;99.90;;;;;;5012448;28;20033;-68
2021/11/29 05:27:22;;;;;;;33.22;18.05;;;1.80;99.90;;;;;;5012119;28;20320;-68
2021/11/29 05:29:48;;;;;;;32.35;17.58;;;1.80;99.90;;;;;;5012014;28;20029;-67
2021/11/29 05:32:14;;;;;;;36.88;18.70;;;1.70;99.90;;;;;;5018615;28;20396;-68
2021/11/29 05:34:39;;;;;;;39.05;19.15;;;1.70;99.90;;;;;;5015512;28;20029;-67
2021/11/29 05:37:05;;;;;;;34.72;18.70;;;1.80;99.90;;;;;;5009621;28;20026;-67
2021/11/29 05:39:30;;;;;;;36.97;19.30;;;1.70;99.90;;;;;;5015759;28;20022;-67
2021/11/29 05:41:56;;;;;;;36.10;19.27;;;1.70;99.90;;;;;;5024238;28;20140;-67
2021/11/29 05:44:22;;;;;;;37.08;19.63;;;1.80;99.90;;;;;;5009814;28;20049;-67
2021/11/29 05:46:47;;;;;;;33.30;17.88;;;1.70;99.90;;;;;;5019023;28;20527;-67
2021/11/29 05:49:13;;;;;;;36.35;19.42;;;1.80;99.90;;;;;;5015550;28;20550;-67
2021/11/29 05:51:39;;;;;;;35.80;19.52;;;1.70;99.90;;;;;;5011908;28;20022;-67
2021/11/29 05:54:05;;;;;;;33.33;18.35;;;1.80;99.90;;;;;;5019303;28;20489;-67
2021/11/29 05:56:30;;;;;;;35.40;18.40;;;1.70;99.90;;;;;;5004194;28;20029;-67
2021/11/29 05:58:56;;;;;;;36.28;19.02;;;1.70;99.90;;;;;;5012210;28;20030;-68
2021/11/29 06:01:23;;;;;;;36.22;18.67;;;1.70;99.90;;;;;;5031239;28;20454;-68
2021/11/29 06:03:49;;;;;;;30.60;16.75;;;1.70;99.90;;;;;;5025061;28;20025;-68
2021/11/29 06:06:15;;;;;;;26.02;14.20;;;1.70;99.90;;;;;;5007522;28;20027;-68
2021/11/29 06:08:40;;;;;;;27.52;14.00;;;1.60;99.90;;;;;;5005334;28;20033;-68
2021/11/29 06:11:06;;;;;;;21.48;12.98;;;1.60;99.90;;;;;;5005199;28;20026;-68
2021/11/29 06:13:32;;;;;;;20.52;12.55;;;1.60;99.90;;;;;;4995895;28;20031;-68
2021/11/29 06:15:58;;;;;;;25.08;13.65;;;1.60;99.90;;;;;;5008717;28;20497;-68
2021/11/29 06:18:24;;;;;;;24.98;13.55;;;1.50;99.90;;;;;;5005833;28;20500;-67
2021/11/29 06:20:49;;;;;;;21.52;12.77;;;1.50;99.90;;;;;;5011682;28;20030;-67
2021/11/29 06:23:15;;;;;;;24.13;12.85;;;1.60;99.90;;;;;;5009499;28;20666;-68
2021/11/29 06:25:41;;;;;;;23.70;13.15;;;1.50;99.90;;;;;;5003957;28;20026;-68
2021/11/29 06:28:07;;;;;;;26.90;13.85;;;1.50;99.90;;;;;;5000070;28;20513;-67
2021/11/29 06:30:34;;;;;;;26.60;14.00;;;1.60;99.90;;;;;;5010328;28;20120;-67
2021/11/29 06:33:00;;;;;;;30.10;14.82;;;1.60;99.90;;;;;;5009576;28;20104;-68
2021/11/29 06:35:27;;;;;;;29.40;14.60;;;1.60;99.90;;;;;;5009277;28;20488;-68
2021/11/29 06:38:03;;;;;;;27.67;14.40;;;1.60;99.90;;;;;;5008212;28;20450;-66
2021/11/29 06:40:29;;;;;;;27.58;14.65;;;1.60;99.90;;;;;;5010523;28;20022;-71
2021/11/29 06:42:55;;;;;;;30.83;15.05;;;1.60;99.90;;;;;;5008847;28;20105;-71
2021/11/29 06:45:21;;;;;;;33.05;15.35;;;1.60;99.90;;;;;;5006814;28;20101;-68
2021/11/29 06:47:47;;;;;;;32.03;14.82;;;1.60;99.90;;;;;;5001422;28;20065;-68
2021/11/29 06:50:13;;;;;;;31.00;15.57;;;1.70;99.90;;;;;;5011922;28;20033;-67
2021/11/29 06:52:39;;;;;;;31.40;14.98;;;1.60;99.90;;;;;;5004627;28;20025;-67
2021/11/29 06:55:06;;;;;;;32.55;14.88;;;1.70;99.90;;;;;;5019443;28;20105;-66
2021/11/29 06:57:32;;;;;;;31.27;15.68;;;1.70;99.90;;;;;;5024604;28;20082;-68
2021/11/29 06:59:57;;;;;;;29.90;15.40;;;1.70;99.90;;;;;;5077109;28;20443;-68
2021/11/29 07:02:27;;;;;;;30.27;14.73;;;1.70;99.90;;;;;;5016595;28;20086;-68
2021/11/29 07:04:56;;;;;;;29.70;15.23;;;1.70;99.90;;;;;;5009792;28;20033;-68
2021/11/29 07:07:22;;;;;;;32.42;15.52;;;1.70;99.90;;;;;;5003102;28;20029;-69
2021/11/29 07:09:48;;;;;;;27.35;14.80;;;1.70;99.90;;;;;;5003659;28;20031;-68
2021/11/29 07:12:15;;;;;;;30.92;15.82;;;1.70;99.90;;;;;;5063396;28;20490;-68
2021/11/29 07:14:41;;;;;;;30.25;16.00;;;1.60;99.90;;;;;;5061541;28;20038;-68
2021/11/29 07:17:06;;;;;;;28.25;15.18;;;1.70;99.90;;;;;;5000741;28;20465;-69
2021/11/29 07:19:32;;;;;;;32.58;16.27;;;1.70;99.90;;;;;;5079090;28;20081;-68
2021/11/29 07:21:58;;;;;;;29.65;15.05;;;1.60;99.90;;;;;;5028553;28;20052;-69
2021/11/29 07:24:23;;;;;;;29.98;15.57;;;1.70;99.90;;;;;;5020636;28;20025;-68
2021/11/29 07:26:49;;;;;;;32.75;15.95;;;1.70;99.90;;;;;;5008502;28;20034;-69
2021/11/29 07:29:15;;;;;;;32.70;14.82;;;1.70;99.90;;;;;;5007719;28;20061;-68
2021/11/29 07:31:42;;;;;;;30.17;15.88;;;1.70;99.90;;;;;;5007856;28;20454;-69
2021/11/29 07:34:08;;;;;;;28.38;14.98;;;1.70;99.90;;;;;;5030055;28;20456;-69
2021/11/29 07:36:34;;;;;;;31.52;15.63;;;1.70;99.90;;;;;;5008360;28;20096;-68
2021/11/29 07:39:00;;;;;;;27.08;14.15;;;1.70;99.90;;;;;;5007172;28;20030;-68
2021/11/29 07:41:26;;;;;;;29.73;16.10;;;1.70;99.90;;;;;;5008646;28;20121;-67
2021/11/29 07:43:51;;;;;;;34.85;18.42;;;1.70;99.90;;;;;;5007144;28;20037;-68
2021/11/29 07:46:18;;;;;;;28.33;14.30;;;1.70;99.90;;;;;;5012046;28;20402;-68
2021/11/29 07:48:44;;;;;;;30.55;15.23;;;1.70;99.90;;;;;;5006507;28;20082;-68
2021/11/29 07:51:09;;;;;;;28.65;14.80;;;1.70;99.90;;;;;;5008362;28;20062;-69
2021/11/29 07:53:35;;;;;;;26.70;13.18;;;1.70;99.90;;;;;;5075493;28;20033;-69
2021/11/29 07:56:01;;;;;;;25.02;13.02;;;1.70;99.90;;;;;;5008458;28;20099;-68
2021/11/29 07:58:27;;;;;;;24.80;12.70;;;1.70;99.90;;;;;;5006170;28;20037;-68
2021/11/29 08:00:53;;;;;;;23.35;12.93;;;1.70;99.90;;;;;;5000781;28;20022;-68
2021/11/29 08:03:18;;;;;;;22.38;12.07;;;1.70;99.90;;;;;;5008150;28;20026;-68
2021/11/29 08:05:44;;;;;;;30.15;14.13;;;1.70;99.90;;;;;;5008252;28;20666;-69
2021/11/29 08:08:10;;;;;;;26.23;12.43;;;1.70;99.90;;;;;;5082583;28;20033;-68
2021/11/29 08:10:37;;;;;;;24.98;13.50;;;1.80;99.90;;;;;;5008988;28;20026;-68
2021/11/29 08:13:05;;;;;;;24.15;12.70;;;1.70;99.90;;;;;;5012144;28;20478;-68
2021/11/29 08:15:30;;;;;;;26.63;13.30;;;1.70;99.90;;;;;;5079979;28;20030;-69
2021/11/29 08:17:56;;;;;;;21.60;11.43;;;1.80;99.90;;;;;;5015005;28;20082;-71
2021/11/29 08:20:25;;;;;;;20.95;11.27;;;1.80;99.90;;;;;;5011341;28;20105;-68
2021/11/29 08:22:55;;;;;;;21.90;11.85;;;1.70;99.90;;;;;;5016076;28;20021;-69
2021/11/29 08:25:21;;;;;;;20.10;11.10;;;1.70;99.90;;;;;;5031429;28;20496;-69
2021/11/29 08:27:47;;;;;;;20.42;11.13;;;1.70;99.90;;;;;;5025011;27;20519;-69
2021/11/29 08:30:16;;;;;;;20.13;11.65;;;1.70;99.90;;;;;;5024070;28;20037;-68
2021/11/29 08:32:42;;;;;;;22.95;10.80;;;1.70;99.90;;;;;;4995720;28;20018;-69
2021/11/29 08:35:13;;;;;;;18.30;10.70;;;1.70;99.90;;;;;;5078543;28;20032;-69
2021/11/29 08:37:43;;;;;;;21.02;11.95;;;1.70;99.90;;;;;;5008053;28;20018;-69
2021/11/29 08:40:09;;;;;;;18.50;10.70;;;1.80;99.90;;;;;;4998193;28;20018;-69
2021/11/29 08:42:35;;;;;;;23.65;14.93;;;1.90;99.90;;;;;;4999931;28;20033;-69
2021/11/29 08:45:02;;;;;;;24.30;12.55;;;2.00;99.90;;;;;;5010260;28;20116;-69
2021/11/29 08:47:28;;;;;;;23.33;12.32;;;2.10;99.90;;;;;;5009595;28;20030;-68
2021/11/29 08:49:54;;;;;;;16.75;9.57;;;2.20;99.90;;;;;;5009931;28;20439;-68
2021/11/29 08:52:21;;;;;;;14.98;8.63;;;2.20;99.90;;;;;;5010837;28;20026;-68
2021/11/29 08:54:47;;;;;;;32.80;16.75;;;2.30;99.90;;;;;;5010456;28;20505;-69
2021/11/29 08:57:12;;;;;;;16.75;10.52;;;2.30;99.90;;;;;;5009928;28;20038;-69
2021/11/29 08:59:38;;;;;;;17.90;10.68;;;2.40;99.90;;;;;;5000057;28;20035;-68
2021/11/29 09:02:05;;;;;;;19.75;10.65;;;2.30;99.90;;;;;;5006981;28;20031;-71
2021/11/29 09:04:31;;;;;;;17.98;10.13;;;2.30;99.90;;;;;;5078045;28;20050;-68
2021/11/29 09:06:56;;;;;;;20.58;11.93;;;2.30;99.90;;;;;;5010093;28;20075;-69
2021/11/29 09:09:22;;;;;;;39.10;30.13;;;2.30;99.90;;;;;;5009921;28;20026;-68
2021/11/29 09:11:48;;;;;;;18.77;12.25;;;2.30;99.90;;;;;;5005013;28;20039;-69
2021/11/29 09:14:14;;;;;;;17.05;9.27;;;2.30;99.90;;;;;;5008316;28;20056;-69
2021/11/29 09:16:39;;;;;;;19.10;10.27;;;2.30;99.90;;;;;;5012312;28;20508;-69
2021/11/29 09:19:05;;;;;;;22.77;10.68;;;2.20;99.90;;;;;;5076906;28;20026;-68
2021/11/29 09:21:32;;;;;;;22.00;9.45;;;2.20;99.90;;;;;;5009056;28;20026;-68
2021/11/29 09:23:58;;;;;;;18.17;10.40;;;2.20;99.90;;;;;;5009699;28;20034;-68
2021/11/29 09:26:24;;;;;;;16.10;9.23;;;2.30;99.90;;;;;;5009906;28;20022;-68
2021/11/29 09:28:50;;;;;;;19.10;9.93;;;2.20;99.90;;;;;;5009022;28;20029;-70
2021/11/29 09:31:16;;;;;;;15.82;9.00;;;2.20;99.90;;;;;;5010046;28;20029;-68
2021/11/29 09:33:42;;;;;;;15.48;8.88;;;2.20;99.90;;;;;;5045911;22;20041;-88
2021/11/29 09:36:08;;;;;;;17.60;11.32;;;2.10;99.90;;;;;;5004741;28;20030;-88
2021/11/29 09:38:34;;;;;;;13.95;8.68;;;2.10;99.90;;;;;;5001102;28;20544;-89
2021/11/29 09:41:01;;;;;;;18.77;10.50;;;2.10;99.90;;;;;;4973975;28;20030;-90
2021/11/29 09:43:26;;;;;;;15.32;9.32;;;2.10;99.90;;;;;;4961647;28;20030;-90
2021/11/29 09:45:53;;;;;;;17.40;9.68;;;2.00;99.90;;;;;;4960719;28;20043;-90
2021/11/29 09:48:20;;;;;;;22.30;11.15;;;2.00;99.90;;;;;;4961967;28;20031;-90
2021/11/29 09:50:51;;;;;;;21.88;9.68;;;2.00;99.90;;;;;;4965539;28;20030;-90
2021/11/29 09:53:18;;;;;;;20.23;9.18;;;2.00;99.90;;;;;;4960329;28;20050;-90
2021/11/29 09:55:44;;;;;;;15.13;8.93;;;2.00;99.90;;;;;;4969338;28;20033;-91
2021/11/29 09:58:10;;;;;;;14.98;8.68;;;2.00;99.90;;;;;;4977584;28;20393;-90
2021/11/29 10:00:40;;;;;;;14.27;8.50;;;2.00;99.90;;;;;;4972880;28;20117;-90
2021/11/29 10:03:07;;;;;;;16.15;7.65;;;2.10;99.90;;;;;;5014003;28;20024;-90
2021/11/29 10:05:37;;;;;;;14.85;8.48;;;2.10;99.90;;;;;;4988665;28;20053;-90
2021/11/29 10:08:35;;;;;;;13.50;7.93;;;2.10;99.90;;;;;;4972833;28;20034;-89
2021/11/29 10:11:17;;;;;;;13.45;7.22;;;2.10;99.90;;;;;;4948682;28;20039;-89
2021/11/29 10:13:56;;;;;;;16.67;8.60;;;2.00;99.90;;;;;;4995956;28;20088;-89
2021/11/29 10:16:42;;;;;;;14.50;7.53;;;2.00;99.90;;;;;;4985275;28;20037;-88
2021/11/29 10:19:31;;;;;;;16.13;8.60;;;2.10;99.90;;;;;;4994319;28;20038;-89
2021/11/29 10:22:20;;;;;;;12.32;8.18;;;2.20;99.90;;;;;;4957880;28;20046;-89
2021/11/29 10:24:49;;;;;;;14.13;7.60;;;2.20;99.90;;;;;;4999911;28;20015;-89
2021/11/29 10:27:16;;;;;;;21.30;13.13;;;2.30;99.90;;;;;;4995768;28;20051;-88
2021/11/29 10:29:53;;;;;;;15.45;7.85;;;2.30;99.90;;;;;;4996580;28;20078;-89
2021/11/29 10:32:31;;;;;;;12.85;7.88;;;2.30;99.90;;;;;;4988889;28;20061;-91
2021/11/29 10:34:57;;;;;;;11.93;7.53;;;2.40;99.90;;;;;;4964347;28;20026;-90
2021/11/29 10:37:33;;;;;;;12.70;7.47;;;2.40;99.90;;;;;;4973805;28;20034;-90
2021/11/29 10:39:59;;;;;;;12.32;7.25;;;2.40;99.90;;;;;;4963512;28;20586;-90
2021/11/29 10:42:26;;;;;;;16.35;8.32;;;2.40;99.90;;;;;;4968331;28;20054;-90
2021/11/29 10:44:54;;;;;;;16.15;7.82;;;2.40;99.90;;;;;;4963110;28;20057;-91
2021/11/29 10:47:21;;;;;;;16.92;8.50;;;2.40;99.90;;;;;;4957089;28;20037;-90
2021/11/29 10:49:51;;;;;;;14.00;7.95;;;2.40;99.90;;;;;;4967373;28;20042;-90
2021/11/29 10:52:19;;;;;;;12.80;7.82;;;2.40;99.90;;;;;;4957043;28;20090;-90
2021/11/29 10:54:46;;;;;;;15.95;7.90;;;2.40;99.90;;;;;;4956886;28;20386;-91
2021/11/29 10:57:14;;;;;;;13.45;8.00;;;2.40;99.90;;;;;;4961114;28;20022;-90
2021/11/29 10:59:41;;;;;;;13.73;7.22;;;2.30;99.90;;;;;;4989615;28;20062;-90
2021/11/29 11:02:18;;;;;;;10.65;7.30;;;2.40;99.90;;;;;;5017601;28;20018;-90
2021/11/29 11:04:47;;;;;;;15.23;7.22;;;2.40;99.90;;;;;;4988619;28;20081;-90
2021/11/29 11:07:25;;;;;;;17.35;7.97;;;2.40;99.90;;;;;;4978484;28;20094;-89
2021/11/29 11:09:55;;;;;;;10.98;7.13;;;2.40;99.90;;;;;;4968569;28;20482;-90
2021/11/29 11:12:24;;;;;;;11.10;6.95;;;2.40;99.90;;;;;;4986923;28;20073;-90
2021/11/29 11:14:54;;;;;;;12.95;7.40;;;2.40;99.90;;;;;;4977321;28;20037;-89
2021/11/29 11:17:22;;;;;;;10.40;6.82;;;2.50;99.90;;;;;;4985392;28;20112;-90
2021/11/29 11:19:50;;;;;;;13.23;7.53;;;2.50;99.90;;;;;;5071121;28;20024;-89
2021/11/29 11:22:30;;;;;;;31.02;16.95;;;2.60;99.90;;;;;;5008957;28;20050;-90
2021/11/29 11:24:59;;;;;;;14.68;7.80;;;2.70;99.90;;;;;;4982823;28;20037;-90
2021/11/29 11:27:27;;;;;;;28.42;13.18;;;2.80;99.90;;;;;;4986771;28;20026;-90
2021/11/29 11:29:55;;;;;;;21.80;14.23;;;2.70;99.90;;;;;;4976743;28;20079;-90
2021/11/29 11:32:29;;;;;;;15.20;8.45;;;2.80;99.90;;;;;;4967023;28;20034;-90
2021/11/29 11:34:57;;;;;;;18.25;8.50;;;2.80;99.90;;;;;;4988868;28;20124;-90
2021/11/29 11:37:26;;;;;;;11.40;7.55;;;2.80;99.90;;;;;;4976954;28;20117;-90
2021/11/29 11:39:53;;;;;;;13.10;7.25;;;2.70;99.90;;;;;;4965770;28;20038;-91
2021/11/29 11:42:22;;;;;;;11.90;6.53;;;2.70;99.90;;;;;;4980410;28;20057;-89
2021/11/29 11:44:49;;;;;;;16.33;7.18;;;2.70;99.90;;;;;;4991902;28;20038;-89
2021/11/29 11:47:15;;;;;;;9.75;6.05;;;2.70;99.90;;;;;;4956033;28;20053;-89
2021/11/29 11:49:44;;;;;;;9.80;6.10;;;2.60;99.90;;;;;;4973466;28;20026;-90
2021/11/29 11:52:13;;;;;;;8.95;6.18;;;2.60;99.90;;;;;;5007887;28;20018;-89
2021/11/29 11:54:42;;;;;;;13.43;6.43;;;2.50;99.90;;;;;;4995230;28;20046;-91
2021/11/29 11:57:10;;;;;;;12.13;5.88;;;2.40;99.90;;;;;;4991159;28;20023;-90
2021/11/29 12:00:06;;;;;;;13.40;6.65;;;2.40;99.90;;;;;;4978321;28;20022;-90
2021/11/29 12:02:43;;;;;;;12.88;6.53;;;2.40;99.90;;;;;;4998965;28;20102;-91
2021/11/29 12:05:24;;;;;;;12.02;7.05;;;2.40;99.90;;;;;;4984068;28;20033;-91
2021/11/29 12:07:51;;;;;;;11.75;6.10;;;2.40;99.90;;;;;;4971641;28;20039;-91
2021/11/29 12:10:34;;;;;;;10.13;5.70;;;2.30;99.90;;;;;;4957832;28;20023;-91
2021/11/29 12:13:02;;;;;;;16.67;6.60;;;2.30;99.90;;;;;;4978169;28;20056;-90
2021/11/29 12:15:52;;;;;;;12.07;5.80;;;2.30;99.90;;;;;;4976267;28;20026;-90
2021/11/29 12:18:39;;;;;;;13.32;5.78;;;2.20;99.90;;;;;;4963347;28;20070;-92
2021/11/29 12:21:12;;;;;;;11.90;6.03;;;2.20;99.90;;;;;;4962257;28;20031;-90
2021/11/29 12:24:01;;;;;;;12.13;5.55;;;2.10;99.90;;;;;;5001736;28;20073;-89
2021/11/29 12:26:45;;;;;;;8.48;5.47;;;2.10;99.90;;;;;;4977555;28;20048;-91
2021/11/29 12:29:23;;;;;;;9.85;5.95;;;2.10;99.90;;;;;;4966320;28;20483;-91
2021/11/29 12:32:01;;;;;;;9.93;6.07;;;2.10;99.90;;;;;;4969758;28;20564;-91
2021/11/29 12:34:48;;;;;;;13.55;6.10;;;2.10;99.90;;;;;;4976917;28;20114;-91
2021/11/29 12:37:19;;;;;;;12.73;6.20;;;2.10;99.90;;;;;;4967372;28;20061;-90
2021/11/29 12:39:45;;;;;;;11.73;5.55;;;2.10;99.90;;;;;;4959144;28;20027;-91
2021/11/29 12:42:22;;;;;;;10.52;5.50;;;2.10;99.90;;;;;;4980943;28;20544;-91